Time;durP1;ratioP1;P1;durP2;ratioP2;P2;SDS_P1;SDS_P2;PMS_P1;PMS_P2;Temp;Humidity;BMP_temperature;BMP_pressure;BME280_temperature;BME280_humidity;BME280_pressure;Samples;Min_cycle;Max_cycle;Signal;HPM_P1;HPM_P2
2023/05/11 00:00:32;;;;;;;28.88;23.13;;;;;;;;;;5056065;28;20048;-82
2023/05/11 00:02:58;;;;;;;34.13;24.42;;;;;;;;;;5060205;28;20044;-82
2023/05/11 00:05:24;;;;;;;33.60;24.88;;;;;;;;;;5061216;28;20045;-82
2023/05/11 00:07:50;;;;;;;33.28;25.00;;;;;;;;;;5061229;28;20453;-82
2023/05/11 00:10:16;;;;;;;33.03;24.58;;;;;;;;;;5061966;28;20049;-82
2023/05/11 00:12:42;;;;;;;34.25;24.85;;;;;;;;;;5051563;28;20042;-81
2023/05/11 00:15:09;;;;;;;31.13;23.48;;;;;;;;;;5041141;28;20044;-82
2023/05/11 00:17:35;;;;;;;32.17;24.25;;;;;;;;;;5041722;28;20049;-82
2023/05/11 00:20:02;;;;;;;31.45;23.15;;;;;;;;;;5042353;28;20045;-82
2023/05/11 00:22:28;;;;;;;31.17;23.60;;;;;;;;;;5029419;28;20049;-82
2023/05/11 00:24:54;;;;;;;31.25;23.83;;;;;;;;;;5023876;28;20054;-82
2023/05/11 00:27:20;;;;;;;32.58;24.25;;;;;;;;;;5042782;28;20038;-82
2023/05/11 00:29:46;;;;;;;34.42;24.92;;;;;;;;;;5043856;28;20049;-81
2023/05/11 00:32:12;;;;;;;32.58;25.10;;;;;;;;;;5051697;28;20040;-80
2023/05/11 00:34:38;;;;;;;35.33;26.17;;;;;;;;;;5051127;28;20049;-82
2023/05/11 00:37:04;;;;;;;35.22;25.30;;;;;;;;;;5053176;28;20041;-82
2023/05/11 00:39:31;;;;;;;34.80;25.95;;;;;;;;;;5061109;28;20049;-83
2023/05/11 00:41:57;;;;;;;36.60;26.75;;;;;;;;;;5058423;28;20422;-81
2023/05/11 00:44:23;;;;;;;36.05;26.92;;;;;;;;;;5058396;28;20033;-82
2023/05/11 00:46:49;;;;;;;37.00;26.63;;;;;;;;;;5050233;28;20644;-82
2023/05/11 00:49:16;;;;;;;33.30;25.52;;;;;;;;;;5052283;28;20126;-82
2023/05/11 00:51:42;;;;;;;37.58;27.55;;;;;;;;;;5025639;28;20044;-82
2023/05/11 00:54:14;;;;;;;35.72;26.60;;;;;;;;;;5054507;28;20045;-81
2023/05/11 00:56:40;;;;;;;;;;;;;;;;;;5060349;28;20406;-81
2023/05/11 00:59:06;;;;;;;43.90;29.20;;;;;;;;;;5052595;28;19921;-82
2023/05/11 01:01:32;;;;;;;43.22;29.50;;;;;;;;;;5050070;28;20045;-81
2023/05/11 01:03:58;;;;;;;41.83;30.20;;;;;;;;;;5053867;28;20063;-81
2023/05/11 01:06:28;;;;;;;44.33;31.20;;;;;;;;;;5060613;28;20049;-81
2023/05/11 01:08:56;;;;;;;44.00;31.50;;;;;;;;;;5040627;28;20049;-81
2023/05/11 01:11:31;;;;;;;50.10;33.20;;;;;;;;;;5023071;28;20836;-81
2023/05/11 01:14:08;;;;;;;45.17;33.00;;;;;;;;;;5057960;28;20060;-80
2023/05/11 01:16:36;;;;;;;43.25;33.10;;;;;;;;;;5052508;28;20037;-81
2023/05/11 01:19:17;;;;;;;44.28;32.58;;;;;;;;;;5064309;28;20091;-81
2023/05/11 01:21:44;;;;;;;41.63;31.55;;;;;;;;;;5064595;28;20056;-81
2023/05/11 01:24:31;;;;;;;43.70;32.88;;;;;;;;;;5051482;28;20049;-81
2023/05/11 01:27:27;;;;;;;43.90;31.85;;;;;;;;;;5064085;28;20052;-81
2023/05/11 01:29:56;;;;;;;45.72;33.35;;;;;;;;;;5037812;28;20061;-82
2023/05/11 01:32:23;;;;;;;50.08;35.45;;;;;;;;;;5060087;28;20056;-81
2023/05/11 01:34:58;;;;;;;49.88;34.63;;;;;;;;;;5047181;28;20078;-82
2023/05/11 01:37:26;;;;;;;49.60;34.38;;;;;;;;;;5062781;28;20063;-82
2023/05/11 01:39:53;;;;;;;55.15;36.55;;;;;;;;;;5045982;28;20057;-82
2023/05/11 01:42:30;;;;;;;52.00;35.58;;;;;;;;;;5063832;28;20067;-82
2023/05/11 01:44:56;;;;;;;52.85;35.13;;;;;;;;;;5063676;28;20045;-83
2023/05/11 01:47:24;;;;;;;51.92;34.00;;;;;;;;;;5041079;28;20044;-82
2023/05/11 01:49:53;;;;;;;51.58;33.65;;;;;;;;;;5060984;28;20049;-81
2023/05/11 01:52:21;;;;;;;51.08;33.90;;;;;;;;;;5061793;28;20049;-82
2023/05/11 01:54:48;;;;;;;48.88;32.28;;;;;;;;;;5058504;28;20056;-81
2023/05/11 01:57:15;;;;;;;52.33;33.40;;;;;;;;;;5063405;28;20045;-82
2023/05/11 01:59:41;;;;;;;49.58;32.65;;;;;;;;;;5040202;28;20120;-83
2023/05/11 02:02:08;;;;;;;48.53;31.98;;;;;;;;;;5063332;28;20045;-83
2023/05/11 02:04:36;;;;;;;49.65;32.65;;;;;;;;;;5055421;28;20037;-83
2023/05/11 02:07:03;;;;;;;50.63;32.92;;;;;;;;;;5055251;28;20068;-82
2023/05/11 02:09:31;;;;;;;49.58;32.15;;;;;;;;;;5053509;28;20073;-83
2023/05/11 02:11:58;;;;;;;45.28;29.67;;;;;;;;;;5054339;28;20041;-83
2023/05/11 02:14:25;;;;;;;44.70;30.70;;;;;;;;;;5027213;28;20068;-83
2023/05/11 02:16:52;;;;;;;42.38;29.42;;;;;;;;;;5056941;28;20040;-83
2023/05/11 02:19:19;;;;;;;44.08;29.27;;;;;;;;;;5053521;28;20045;-83
2023/05/11 02:21:45;;;;;;;46.97;31.10;;;;;;;;;;5052031;28;20049;-83
2023/05/11 02:24:12;;;;;;;44.47;30.20;;;;;;;;;;5056197;28;20037;-83
2023/05/11 02:26:38;;;;;;;49.53;31.42;;;;;;;;;;5062811;28;20041;-83
2023/05/11 02:29:04;;;;;;;48.67;32.17;;;;;;;;;;5063696;28;20037;-82
2023/05/11 02:31:31;;;;;;;48.85;32.90;;;;;;;;;;5063856;28;20068;-82
2023/05/11 02:34:04;;;;;;;53.03;33.95;;;;;;;;;;5063543;28;20037;-82
2023/05/11 02:36:32;;;;;;;47.50;31.55;;;;;;;;;;5044062;28;20045;-83
2023/05/11 02:39:03;;;;;;;40.00;27.17;;;;;;;;;;5055742;28;20398;-82
2023/05/11 02:41:30;;;;;;;50.03;30.80;;;;;;;;;;5062823;28;20057;-82
2023/05/11 02:43:57;;;;;;;41.35;28.40;;;;;;;;;;5062818;28;20041;-82
2023/05/11 02:46:29;;;;;;;39.60;26.83;;;;;;;;;;5061037;28;20044;-83
2023/05/11 02:48:55;;;;;;;;;;;;;;;;;;5062970;28;20057;-83
2023/05/11 02:51:24;;;;;;;35.67;24.17;;;;;;;;;;5065036;28;20386;-81
2023/05/11 02:53:51;;;;;;;34.55;23.13;;;;;;;;;;5058447;28;20402;-81
2023/05/11 02:56:17;;;;;;;37.78;24.90;;;;;;;;;;5061741;28;20041;-83
2023/05/11 02:58:43;;;;;;;33.85;23.73;;;;;;;;;;5032896;28;20045;-83
2023/05/11 03:01:11;;;;;;;35.67;23.63;;;;;;;;;;5056816;28;20095;-82
2023/05/11 03:03:37;;;;;;;32.00;22.90;;;;;;;;;;5049325;28;20060;-83
2023/05/11 03:06:04;;;;;;;41.40;24.65;;;;;;;;;;5050802;28;20049;-83
2023/05/11 03:08:30;;;;;;;44.15;25.33;;;;;;;;;;5046979;28;20041;-83
2023/05/11 03:10:57;;;;;;;50.00;26.00;;;;;;;;;;5046978;28;20048;-83
2023/05/11 03:13:24;;;;;;;64.93;30.08;;;;;;;;;;5068625;28;20040;-82
2023/05/11 03:15:51;;;;;;;67.20;31.05;;;;;;;;;;5044935;28;20046;-81
2023/05/11 03:18:18;;;;;;;77.30;31.75;;;;;;;;;;5067625;28;20045;-83
2023/05/11 03:20:45;;;;;;;106.82;32.47;;;;;;;;;;5063175;28;20090;-83
2023/05/11 03:23:11;;;;;;;62.25;31.10;;;;;;;;;;5062531;28;20068;-84
2023/05/11 03:25:37;;;;;;;83.65;31.20;;;;;;;;;;5062472;28;20045;-84
2023/05/11 03:28:04;;;;;;;69.25;32.28;;;;;;;;;;5038805;28;20056;-84
2023/05/11 03:30:31;;;;;;;48.13;28.27;;;;;;;;;;5059432;28;20116;-84
2023/05/11 03:32:57;;;;;;;40.42;24.02;;;;;;;;;;5049970;28;20041;-83
2023/05/11 03:35:25;;;;;;;32.63;21.83;;;;;;;;;;5056130;28;20128;-83
2023/05/11 03:37:52;;;;;;;34.35;21.77;;;;;;;;;;5057578;28;20517;-83
2023/05/11 03:40:19;;;;;;;32.70;21.55;;;;;;;;;;5062557;28;20053;-82
2023/05/11 03:42:45;;;;;;;25.02;18.90;;;;;;;;;;5061506;28;20037;-83
2023/05/11 03:45:13;;;;;;;23.95;18.13;;;;;;;;;;5056796;28;20053;-82
2023/05/11 03:47:40;;;;;;;23.90;17.40;;;;;;;;;;5061308;28;20056;-82
2023/05/11 03:50:07;;;;;;;24.00;16.70;;;;;;;;;;5061297;28;20057;-82
2023/05/11 03:52:34;;;;;;;29.38;18.17;;;;;;;;;;5055422;28;20048;-82
2023/05/11 03:55:00;;;;;;;24.67;18.20;;;;;;;;;;5047618;28;20054;-83
2023/05/11 03:57:26;;;;;;;29.20;19.35;;;;;;;;;;5055502;28;20037;-83
2023/05/11 03:59:53;;;;;;;27.30;18.90;;;;;;;;;;5052983;28;20398;-83
2023/05/11 04:02:19;;;;;;;28.70;19.55;;;;;;;;;;5051843;28;20063;-83
2023/05/11 04:04:45;;;;;;;31.55;20.13;;;;;;;;;;5014296;28;20144;-83
2023/05/11 04:07:11;;;;;;;31.33;19.83;;;;;;;;;;5031485;28;20131;-83
2023/05/11 04:09:37;;;;;;;36.38;19.67;;;;;;;;;;5016464;28;20073;-83
2023/05/11 04:12:03;;;;;;;30.20;19.40;;;;;;;;;;5038026;28;20048;-83
2023/05/11 04:14:29;;;;;;;31.55;19.58;;;;;;;;;;5010911;28;20055;-83
2023/05/11 04:16:55;;;;;;;33.63;20.35;;;;;;;;;;5055545;28;20053;-81
2023/05/11 04:19:21;;;;;;;31.58;19.42;;;;;;;;;;5052716;28;20450;-82
2023/05/11 04:21:47;;;;;;;33.53;20.30;;;;;;;;;;5054947;28;20049;-82
2023/05/11 04:24:14;;;;;;;34.53;20.25;;;;;;;;;;5032377;28;20041;-80
2023/05/11 04:26:40;;;;;;;41.67;19.88;;;;;;;;;;5025519;28;20140;-82
2023/05/11 04:29:08;;;;;;;44.03;21.63;;;;;;;;;;5062914;28;20119;-81
2023/05/11 04:31:34;;;;;;;46.45;20.58;;;;;;;;;;5060399;28;20045;-80
2023/05/11 04:34:00;;;;;;;40.25;20.45;;;;;;;;;;5035381;28;20053;-80
2023/05/11 04:36:26;;;;;;;38.20;21.25;;;;;;;;;;5055321;28;20117;-81
2023/05/11 04:38:52;;;;;;;48.50;22.27;;;;;;;;;;5060678;28;20041;-80
2023/05/11 04:41:19;;;;;;;61.20;22.85;;;;;;;;;;5053583;28;20118;-81
2023/05/11 04:43:45;;;;;;;45.72;23.10;;;;;;;;;;5030473;28;20056;-82
2023/05/11 04:46:11;;;;;;;68.20;22.60;;;;;;;;;;5061576;28;20076;-82
2023/05/11 04:48:37;;;;;;;65.35;21.52;;;;;;;;;;5043079;28;20118;-82
2023/05/11 04:51:07;;;;;;;56.65;21.58;;;;;;;;;;5041654;28;20049;-82
2023/05/11 04:53:33;;;;;;;63.60;23.55;;;;;;;;;;5056694;28;20044;-81
2023/05/11 04:55:59;;;;;;;66.90;24.00;;;;;;;;;;5026326;28;20045;-81
2023/05/11 04:58:25;;;;;;;54.50;22.52;;;;;;;;;;5060904;28;20041;-81
2023/05/11 05:00:51;;;;;;;37.08;23.33;;;;;;;;;;5032081;28;20056;-82
2023/05/11 05:03:17;;;;;;;89.50;31.08;;;;;;;;;;5042704;28;20074;-81
2023/05/11 05:05:43;;;;;;;58.47;22.70;;;;;;;;;;5059486;28;20045;-82
2023/05/11 05:08:09;;;;;;;70.90;22.05;;;;;;;;;;5023430;28;20045;-83
2023/05/11 05:10:35;;;;;;;63.33;23.17;;;;;;;;;;5036925;28;20084;-83
2023/05/11 05:13:02;;;;;;;57.92;24.08;;;;;;;;;;5061488;28;20418;-83
2023/05/11 05:15:28;;;;;;;56.35;23.40;;;;;;;;;;5061091;28;20080;-83
2023/05/11 05:17:54;;;;;;;63.72;23.90;;;;;;;;;;5060814;28;20104;-81
2023/05/11 05:20:20;;;;;;;58.55;23.38;;;;;;;;;;5046010;28;20079;-81
2023/05/11 05:22:46;;;;;;;63.65;23.50;;;;;;;;;;5034526;28;20052;-81
2023/05/11 05:25:12;;;;;;;43.97;23.15;;;;;;;;;;5055530;28;20045;-81
2023/05/11 05:27:38;;;;;;;87.88;25.55;;;;;;;;;;5048905;28;20041;-82
2023/05/11 05:30:04;;;;;;;64.53;26.15;;;;;;;;;;5055656;28;20075;-83
2023/05/11 05:32:33;;;;;;;70.05;26.60;;;;;;;;;;5052232;28;20041;-83
2023/05/11 05:35:00;;;;;;;44.20;25.90;;;;;;;;;;5060572;28;20516;-81
2023/05/11 05:37:26;;;;;;;52.85;27.40;;;;;;;;;;5061964;28;20071;-82
2023/05/11 05:39:52;;;;;;;43.88;25.10;;;;;;;;;;5057587;28;20155;-82
2023/05/11 05:42:24;;;;;;;50.67;26.55;;;;;;;;;;5040739;28;20044;-82
2023/05/11 05:44:50;;;;;;;43.75;23.90;;;;;;;;;;5060606;28;20056;-82
2023/05/11 05:47:16;;;;;;;40.97;24.42;;;;;;;;;;5063040;28;20068;-83
2023/05/11 05:49:42;;;;;;;47.63;25.52;;;;;;;;;;5066629;28;20064;-82
2023/05/11 05:52:09;;;;;;;45.42;24.25;;;;;;;;;;5034858;28;20049;-83
2023/05/11 05:54:35;;;;;;;42.70;23.05;;;;;;;;;;5045535;28;20042;-82
2023/05/11 05:57:01;;;;;;;38.67;23.33;;;;;;;;;;5044736;28;20054;-83
2023/05/11 05:59:27;;;;;;;41.13;23.85;;;;;;;;;;5022344;28;20055;-83
2023/05/11 06:01:53;;;;;;;40.17;24.05;;;;;;;;;;5061074;28;20055;-82
2023/05/11 06:04:19;;;;;;;42.65;25.42;;;;;;;;;;5048459;28;20041;-82
2023/05/11 06:06:46;;;;;;;39.38;24.42;;;;;;;;;;5039389;28;20041;-82
2023/05/11 06:09:12;;;;;;;38.25;22.45;;;;;;;;;;5054071;28;20051;-83
2023/05/11 06:11:38;;;;;;;39.50;22.65;;;;;;;;;;5030979;28;20051;-82
2023/05/11 06:14:04;;;;;;;37.90;23.85;;;;;;;;;;5026714;28;20104;-81
2023/05/11 06:16:30;;;;;;;37.95;23.65;;;;;;;;;;5055317;28;20048;-81
2023/05/11 06:18:56;;;;;;;37.42;22.88;;;;;;;;;;5060945;28;20045;-81
2023/05/11 06:21:22;;;;;;;36.38;21.50;;;;;;;;;;5057935;28;20048;-81
2023/05/11 06:23:48;;;;;;;35.17;22.67;;;;;;;;;;5060475;28;20041;-80
2023/05/11 06:26:14;;;;;;;35.92;22.70;;;;;;;;;;5038200;28;20052;-82
2023/05/11 06:28:41;;;;;;;33.10;21.52;;;;;;;;;;5023353;28;20554;-81
2023/05/11 06:31:07;;;;;;;32.28;22.27;;;;;;;;;;5065080;28;20045;-84
2023/05/11 06:33:33;;;;;;;36.17;22.45;;;;;;;;;;5059997;28;20043;-81
2023/05/11 06:36:03;;;;;;;36.25;22.38;;;;;;;;;;5043173;28;20132;-80
2023/05/11 06:38:29;;;;;;;34.70;22.63;;;;;;;;;;5044966;28;20056;-81
2023/05/11 06:40:55;;;;;;;36.20;22.75;;;;;;;;;;5054590;28;20472;-82
2023/05/11 06:43:21;;;;;;;35.45;20.65;;;;;;;;;;5028784;28;20040;-82
2023/05/11 06:45:48;;;;;;;33.33;21.90;;;;;;;;;;5056825;28;20041;-82
2023/05/11 06:48:14;;;;;;;31.73;21.42;;;;;;;;;;5061200;28;20041;-81
2023/05/11 06:50:40;;;;;;;30.33;20.92;;;;;;;;;;5061598;28;20044;-81
2023/05/11 06:53:06;;;;;;;31.35;20.95;;;;;;;;;;5040862;28;20048;-83
2023/05/11 06:55:33;;;;;;;33.28;21.30;;;;;;;;;;5046947;28;20398;-82
2023/05/11 06:57:59;;;;;;;30.70;20.70;;;;;;;;;;5063155;28;20112;-82
2023/05/11 07:00:25;;;;;;;29.88;20.90;;;;;;;;;;5041126;28;20045;-82
2023/05/11 07:02:51;;;;;;;33.50;21.80;;;;;;;;;;5060710;28;20060;-81
2023/05/11 07:05:17;;;;;;;30.55;21.55;;;;;;;;;;5061729;28;20047;-82
2023/05/11 07:07:43;;;;;;;29.92;20.85;;;;;;;;;;5060616;28;20049;-82
2023/05/11 07:10:10;;;;;;;31.35;21.23;;;;;;;;;;5056976;28;20041;-83
2023/05/11 07:12:36;;;;;;;29.83;20.77;;;;;;;;;;5052940;28;20048;-81
2023/05/11 07:15:02;;;;;;;30.75;20.65;;;;;;;;;;5042451;28;20410;-83
2023/05/11 07:17:28;;;;;;;32.90;21.30;;;;;;;;;;5052010;28;20044;-82
2023/05/11 07:19:54;;;;;;;31.52;21.30;;;;;;;;;;5047768;28;20108;-81
2023/05/11 07:22:20;;;;;;;31.48;22.15;;;;;;;;;;5027761;28;20044;-81
2023/05/11 07:24:46;;;;;;;31.52;19.48;;;;;;;;;;5036303;28;20053;-82
2023/05/11 07:27:13;;;;;;;31.20;20.48;;;;;;;;;;5041941;28;20048;-82
2023/05/11 07:29:40;;;;;;;28.42;20.90;;;;;;;;;;5050445;28;20050;-81
2023/05/11 07:32:06;;;;;;;31.52;21.17;;;;;;;;;;5055794;28;20115;-81
2023/05/11 07:34:32;;;;;;;35.65;21.65;;;;;;;;;;5052091;28;20049;-81
2023/05/11 07:36:58;;;;;;;29.38;21.48;;;;;;;;;;5053800;28;20060;-82
2023/05/11 07:39:24;;;;;;;27.67;18.52;;;;;;;;;;5057086;28;20069;-81
2023/05/11 07:41:50;;;;;;;23.27;17.75;;;;;;;;;;5034460;28;20081;-81
2023/05/11 07:44:16;;;;;;;24.92;18.15;;;;;;;;;;5046772;28;20063;-83
2023/05/11 07:46:42;;;;;;;28.33;19.20;;;;;;;;;;5059345;28;20076;-80
2023/05/11 07:49:09;;;;;;;22.92;16.73;;;;;;;;;;5042739;28;20045;-81
2023/05/11 07:51:36;;;;;;;26.67;18.40;;;;;;;;;;5059520;28;20503;-82
2023/05/11 07:54:02;;;;;;;25.65;17.42;;;;;;;;;;5038568;28;20072;-82
2023/05/11 07:56:28;;;;;;;27.15;18.88;;;;;;;;;;5058558;28;20486;-81
2023/05/11 07:58:54;;;;;;;24.80;18.85;;;;;;;;;;5052294;28;20090;-82
2023/05/11 08:01:21;;;;;;;23.73;17.30;;;;;;;;;;5045382;28;20049;-82
2023/05/11 08:03:47;;;;;;;27.83;18.70;;;;;;;;;;5047588;28;20037;-82
2023/05/11 08:06:13;;;;;;;21.52;16.55;;;;;;;;;;5031808;28;20103;-83
2023/05/11 08:08:39;;;;;;;25.98;17.33;;;;;;;;;;5032270;28;20041;-83
2023/05/11 08:11:05;;;;;;;26.33;16.92;;;;;;;;;;5056233;28;20092;-82
2023/05/11 08:13:31;;;;;;;22.17;17.50;;;;;;;;;;5041039;28;20079;-82
2023/05/11 08:15:57;;;;;;;20.95;16.67;;;;;;;;;;5029494;28;20466;-82
2023/05/11 08:18:23;;;;;;;27.77;17.25;;;;;;;;;;5041771;28;20049;-82
2023/05/11 08:20:50;;;;;;;20.52;16.08;;;;;;;;;;5057724;28;20106;-82
2023/05/11 08:23:17;;;;;;;26.30;16.30;;;;;;;;;;5044184;28;20053;-83
2023/05/11 08:25:53;;;;;;;27.65;16.15;;;;;;;;;;5061997;28;20048;-82
2023/05/11 08:28:19;;;;;;;21.67;15.98;;;;;;;;;;5027095;28;20053;-81
2023/05/11 08:30:45;;;;;;;20.80;16.15;;;;;;;;;;5043145;28;20037;-82
2023/05/11 08:33:12;;;;;;;24.25;16.63;;;;;;;;;;5049774;28;20321;-80
2023/05/11 08:35:39;;;;;;;21.35;16.27;;;;;;;;;;5058947;28;20041;-81
2023/05/11 08:38:05;;;;;;;20.05;15.48;;;;;;;;;;5046991;28;20414;-81
2023/05/11 08:40:31;;;;;;;20.27;15.90;;;;;;;;;;5036511;28;20302;-81
2023/05/11 08:43:00;;;;;;;29.02;15.63;;;;;;;;;;5057086;28;20079;-81
2023/05/11 08:45:27;;;;;;;19.73;15.55;;;;;;;;;;5049908;28;20045;-82
2023/05/11 08:47:53;;;;;;;19.92;15.27;;;;;;;;;;5055315;28;20045;-82
2023/05/11 08:50:19;;;;;;;18.73;14.32;;;;;;;;;;5054721;28;20057;-83
2023/05/11 08:52:46;;;;;;;21.50;15.80;;;;;;;;;;5041037;28;20372;-82
2023/05/11 08:55:12;;;;;;;22.88;15.25;;;;;;;;;;5044469;28;20427;-83
2023/05/11 08:57:40;;;;;;;23.73;15.13;;;;;;;;;;5050695;28;20041;-83
2023/05/11 09:00:09;;;;;;;21.23;15.65;;;;;;;;;;5058282;28;20044;-82
2023/05/11 09:02:36;;;;;;;21.25;15.02;;;;;;;;;;5042808;28;20103;-83
2023/05/11 09:05:03;;;;;;;24.15;14.50;;;;;;;;;;5044289;28;20502;-83
2023/05/11 09:07:30;;;;;;;18.52;14.13;;;;;;;;;;5023364;28;20037;-83
2023/05/11 09:09:56;;;;;;;18.27;13.85;;;;;;;;;;5054860;28;20041;-82
2023/05/11 09:12:25;;;;;;;20.58;14.40;;;;;;;;;;5056914;28;20069;-83
2023/05/11 09:14:51;;;;;;;16.83;12.60;;;;;;;;;;5058658;28;20053;-84
2023/05/11 09:17:18;;;;;;;55.00;14.10;;;;;;;;;;5041542;28;20106;-82
2023/05/11 09:19:58;;;;;;;17.23;12.88;;;;;;;;;;5053642;28;20091;-82
2023/05/11 09:22:24;;;;;;;45.67;13.98;;;;;;;;;;5045660;28;20052;-82
2023/05/11 09:24:50;;;;;;;24.55;14.25;;;;;;;;;;5055040;28;20492;-82
2023/05/11 09:27:16;;;;;;;21.42;14.32;;;;;;;;;;5059149;28;20086;-82
2023/05/11 09:29:42;;;;;;;19.60;13.27;;;;;;;;;;5058186;28;20049;-82
2023/05/11 09:32:08;;;;;;;17.02;13.82;;;;;;;;;;5055289;28;20037;-82
2023/05/11 09:34:34;;;;;;;25.45;13.30;;;;;;;;;;5050503;28;20090;-83
2023/05/11 09:37:00;;;;;;;14.65;12.30;;;;;;;;;;5050916;28;20042;-81
2023/05/11 09:39:36;;;;;;;15.73;12.45;;;;;;;;;;5068016;28;20105;-82
2023/05/11 09:42:18;;;;;;;17.80;12.68;;;;;;;;;;5067765;28;20108;-83
2023/05/11 09:44:45;;;;;;;16.33;11.82;;;;;;;;;;5053719;28;20064;-82
2023/05/11 09:47:19;;;;;;;17.83;12.30;;;;;;;;;;5059384;28;20060;-83
2023/05/11 09:49:46;;;;;;;15.32;12.45;;;;;;;;;;5063082;28;20061;-83
2023/05/11 09:52:13;;;;;;;15.93;13.15;;;;;;;;;;5046338;28;20048;-83
2023/05/11 09:54:41;;;;;;;15.98;13.30;;;;;;;;;;5064561;28;20057;-83
2023/05/11 09:57:08;;;;;;;14.05;12.48;;;;;;;;;;5063464;28;20052;-83
2023/05/11 09:59:39;;;;;;;15.70;13.57;;;;;;;;;;5064208;28;20166;-83
2023/05/11 10:02:20;;;;;;;16.77;12.25;;;;;;;;;;5050023;28;20041;-82
2023/05/11 10:04:47;;;;;;;15.10;12.73;;;;;;;;;;5026703;28;20109;-82
2023/05/11 10:07:29;;;;;;;14.90;12.10;;;;;;;;;;5055570;28;20418;-83
2023/05/11 10:09:57;;;;;;;15.90;12.52;;;;;;;;;;5059391;28;20055;-83
2023/05/11 10:12:24;;;;;;;15.35;12.73;;;;;;;;;;5056071;28;20041;-82
2023/05/11 10:14:51;;;;;;;14.00;12.00;;;;;;;;;;5060748;28;20047;-83
2023/05/11 10:17:18;;;;;;;14.25;12.68;;;;;;;;;;5061867;28;20532;-83
2023/05/11 10:19:44;;;;;;;14.63;12.98;;;;;;;;;;5060452;28;20086;-84
2023/05/11 10:22:11;;;;;;;17.70;13.75;;;;;;;;;;5046085;28;20056;-81
2023/05/11 10:24:37;;;;;;;15.98;13.82;;;;;;;;;;5063131;28;20448;-82
2023/05/11 10:27:04;;;;;;;15.25;13.65;;;;;;;;;;5060151;28;20044;-81
2023/05/11 10:29:30;;;;;;;15.82;13.48;;;;;;;;;;5056563;28;20037;-81
2023/05/11 10:31:58;;;;;;;15.50;13.82;;;;;;;;;;5058813;28;20390;-82
2023/05/11 10:34:24;;;;;;;15.57;13.98;;;;;;;;;;5054840;28;20041;-82
2023/05/11 10:36:52;;;;;;;14.43;12.52;;;;;;;;;;5054701;28;20056;-82
2023/05/11 10:39:18;;;;;;;14.07;12.40;;;;;;;;;;5063444;28;20069;-82
2023/05/11 10:41:47;;;;;;;14.60;12.82;;;;;;;;;;5046355;28;20041;-82
2023/05/11 10:44:34;;;;;;;12.98;11.45;;;;;;;;;;5062927;28;20515;-81
2023/05/11 10:47:03;;;;;;;12.95;10.93;;;;;;;;;;5001618;28;20075;-82
2023/05/11 10:49:51;;;;;;;15.43;11.40;;;;;;;;;;5043965;28;20045;-82
2023/05/11 10:52:43;;;;;;;12.68;10.82;;;;;;;;;;5052651;28;20044;-82
2023/05/11 10:55:28;;;;;;;13.00;11.57;;;;;;;;;;5046539;28;20044;-82
2023/05/11 10:58:09;;;;;;;13.30;11.10;;;;;;;;;;5060985;28;20049;-80
2023/05/11 11:00:42;;;;;;;12.45;9.95;;;;;;;;;;5056261;28;20246;-81
2023/05/11 11:03:09;;;;;;;13.18;10.25;;;;;;;;;;5065623;28;20379;-81
2023/05/11 11:05:38;;;;;;;11.80;9.70;;;;;;;;;;5060310;28;20037;-82
2023/05/11 11:08:07;;;;;;;12.90;9.65;;;;;;;;;;5064250;28;20047;-82
2023/05/11 11:10:34;;;;;;;12.23;9.70;;;;;;;;;;5065317;28;20041;-82
2023/05/11 11:13:08;;;;;;;11.85;10.32;;;;;;;;;;5017108;28;20057;-82
2023/05/11 11:16:06;;;;;;;11.38;9.75;;;;;;;;;;5058428;28;20048;-82
2023/05/11 11:18:32;;;;;;;11.02;9.13;;;;;;;;;;5017787;28;20048;-82
2023/05/11 11:20:59;;;;;;;8.88;6.50;;;;;;;;;;5059654;28;20058;-83
2023/05/11 11:23:45;;;;;;;9.90;7.00;;;;;;;;;;5062805;28;20072;-81
2023/05/11 11:26:14;;;;;;;8.95;7.03;;;;;;;;;;5047859;28;20041;-82
2023/05/11 11:29:01;;;;;;;9.63;6.38;;;;;;;;;;5057109;28;20507;-82
2023/05/11 11:31:29;;;;;;;9.35;7.45;;;;;;;;;;5061609;28;20049;-82
2023/05/11 11:33:57;;;;;;;10.75;7.82;;;;;;;;;;5056362;28;20407;-83
2023/05/11 11:36:42;;;;;;;9.60;7.13;;;;;;;;;;5049193;28;20067;-82
2023/05/11 11:39:08;;;;;;;10.52;7.80;;;;;;;;;;5062921;28;20556;-81
2023/05/11 11:41:36;;;;;;;10.48;8.07;;;;;;;;;;5058209;28;20410;-80
2023/05/11 11:44:03;;;;;;;11.18;7.30;;;;;;;;;;5043928;28;20051;-81
2023/05/11 11:46:29;;;;;;;9.10;7.00;;;;;;;;;;5045079;28;20107;-81
2023/05/11 11:49:09;;;;;;;9.88;6.90;;;;;;;;;;5061925;28;20060;-81
2023/05/11 11:51:36;;;;;;;10.45;6.53;;;;;;;;;;5058061;28;20136;-80
2023/05/11 11:54:03;;;;;;;9.40;6.60;;;;;;;;;;5045540;28;20063;-81
2023/05/11 11:56:29;;;;;;;10.35;6.72;;;;;;;;;;5064338;28;20041;-81
2023/05/11 11:58:55;;;;;;;9.60;6.70;;;;;;;;;;5063351;28;20059;-80
2023/05/11 12:01:22;;;;;;;8.85;6.38;;;;;;;;;;5061530;28;20033;-80
2023/05/11 12:03:55;;;;;;;8.68;6.43;;;;;;;;;;5061340;28;20033;-81
2023/05/11 12:06:23;;;;;;;8.45;6.13;;;;;;;;;;5064498;28;20048;-81
2023/05/11 12:08:49;;;;;;;9.48;6.03;;;;;;;;;;5075479;28;20053;-81
2023/05/11 12:11:16;;;;;;;8.32;6.07;;;;;;;;;;5075948;28;20102;-80
2023/05/11 12:13:43;;;;;;;7.55;5.68;;;;;;;;;;5068111;28;20063;-82
2023/05/11 12:16:09;;;;;;;10.07;6.07;;;;;;;;;;5065888;28;20079;-82
2023/05/11 12:18:35;;;;;;;10.13;6.22;;;;;;;;;;5064660;28;20068;-82
2023/05/11 12:21:01;;;;;;;8.27;6.03;;;;;;;;;;5065338;28;20045;-81
2023/05/11 12:23:28;;;;;;;8.07;5.10;;;;;;;;;;5051326;28;20046;-82
2023/05/11 12:26:04;;;;;;;7.45;4.25;;;;;;;;;;5026060;28;20487;-81
2023/05/11 12:28:30;;;;;;;7.95;5.03;;;;;;;;;;5058680;28;20104;-82
2023/05/11 12:30:57;;;;;;;6.72;4.20;;;;;;;;;;5049823;28;20512;-83
2023/05/11 12:33:23;;;;;;;8.13;4.80;;;;;;;;;;5049771;28;20048;-82
2023/05/11 12:35:52;;;;;;;7.18;4.18;;;;;;;;;;5045831;28;20044;-81
2023/05/11 12:38:19;;;;;;;7.80;4.60;;;;;;;;;;5063174;28;20091;-82
2023/05/11 12:40:48;;;;;;;7.60;4.63;;;;;;;;;;5063712;28;20056;-82
2023/05/11 12:43:18;;;;;;;8.88;6.35;;;;;;;;;;5057641;28;20045;-83
2023/05/11 12:45:45;;;;;;;9.02;6.03;;;;;;;;;;5029810;28;20041;-82
2023/05/11 12:48:11;;;;;;;9.40;6.03;;;;;;;;;;5059906;28;20125;-83
2023/05/11 12:50:41;;;;;;;9.70;5.60;;;;;;;;;;5054592;28;20616;-83
2023/05/11 12:53:17;;;;;;;8.75;6.32;;;;;;;;;;5061106;28;20045;-82
2023/05/11 12:55:43;;;;;;;8.82;5.90;;;;;;;;;;5056952;28;20048;-82
2023/05/11 12:58:13;;;;;;;8.82;5.22;;;;;;;;;;5055611;28;20041;-82
2023/05/11 13:00:55;;;;;;;8.23;5.38;;;;;;;;;;5056427;28;20049;-82
2023/05/11 13:03:22;;;;;;;7.80;4.82;;;;;;;;;;5065116;28;20037;-80
2023/05/11 13:05:48;;;;;;;6.72;4.50;;;;;;;;;;5062303;28;20041;-82
2023/05/11 13:08:16;;;;;;;8.07;4.50;;;;;;;;;;5035439;28;20052;-81
2023/05/11 13:10:42;;;;;;;6.50;4.25;;;;;;;;;;5048915;28;20056;-83
2023/05/11 13:13:11;;;;;;;7.20;4.60;;;;;;;;;;5060394;28;20105;-82
2023/05/11 13:15:51;;;;;;;8.00;5.10;;;;;;;;;;5046838;28;20041;-83
2023/05/11 13:18:17;;;;;;;10.35;5.45;;;;;;;;;;5067591;28;20037;-82
2023/05/11 13:20:43;;;;;;;7.70;5.10;;;;;;;;;;5055743;28;20037;-83
2023/05/11 13:23:10;;;;;;;6.80;4.60;;;;;;;;;;5057933;28;20106;-82
2023/05/11 13:25:47;;;;;;;6.63;4.90;;;;;;;;;;5059820;28;20052;-81
2023/05/11 13:28:14;;;;;;;9.75;5.22;;;;;;;;;;5046042;28;20053;-81
2023/05/11 13:30:40;;;;;;;6.75;4.60;;;;;;;;;;5049025;28;20049;-82
2023/05/11 13:33:06;;;;;;;9.23;3.90;;;;;;;;;;5051968;28;20084;-81
2023/05/11 13:35:32;;;;;;;6.53;3.03;;;;;;;;;;5066090;28;20045;-82
2023/05/11 13:37:58;;;;;;;5.47;2.40;;;;;;;;;;5051176;28;20445;-81
2023/05/11 13:40:24;;;;;;;6.90;2.85;;;;;;;;;;5073935;28;20055;-82
2023/05/11 13:42:50;;;;;;;6.13;1.73;;;;;;;;;;5067353;28;20068;-82
2023/05/11 13:45:16;;;;;;;4.80;1.65;;;;;;;;;;5066441;28;20041;-81
2023/05/11 13:47:42;;;;;;;6.00;3.38;;;;;;;;;;5060317;28;20705;-82
2023/05/11 13:50:09;;;;;;;6.43;3.67;;;;;;;;;;5062686;28;20044;-82
2023/05/11 13:52:36;;;;;;;7.57;4.07;;;;;;;;;;5058695;28;20045;-83
2023/05/11 13:55:02;;;;;;;5.45;3.38;;;;;;;;;;5045154;28;20052;-83
2023/05/11 13:57:28;;;;;;;8.00;3.88;;;;;;;;;;5062772;28;20062;-82
2023/05/11 13:59:54;;;;;;;6.70;3.53;;;;;;;;;;5064753;28;20041;-84
2023/05/11 14:02:20;;;;;;;9.88;5.03;;;;;;;;;;5058158;28;20068;-82
2023/05/11 14:04:46;;;;;;;7.88;4.22;;;;;;;;;;5052615;28;20120;-82
2023/05/11 14:07:14;;;;;;;8.20;3.80;;;;;;;;;;5062270;28;20118;-80
2023/05/11 14:09:41;;;;;;;7.88;2.90;;;;;;;;;;5065088;28;20491;-81
2023/05/11 14:12:07;;;;;;;6.78;3.58;;;;;;;;;;5038878;28;20117;-82
2023/05/11 14:14:33;;;;;;;7.55;3.90;;;;;;;;;;5049042;28;20171;-81
2023/05/11 14:16:59;;;;;;;8.52;3.97;;;;;;;;;;5049031;28;20045;-82
2023/05/11 14:19:25;;;;;;;7.28;3.70;;;;;;;;;;5053592;28;20068;-80
2023/05/11 14:21:51;;;;;;;6.57;3.55;;;;;;;;;;5056892;28;20055;-80
2023/05/11 14:24:17;;;;;;;7.88;3.60;;;;;;;;;;5054406;28;20076;-81
2023/05/11 14:26:43;;;;;;;8.00;3.75;;;;;;;;;;5058441;28;20437;-80